Eviapetrol II — SY6858 — position and weather

sailwx.info

Track history (hours):
 
Tides and Currents Weather Stations Pressure Air Temp Water Temp Dewpoint Dewpoint Depression Visibility Wind Speed Wind Dir Waves Ship Positions

Eviapetrol II

Last reported at 2017-Oct-18 16:27 UTC. Time now 2017-Oct-18 16:57 UTC.
Position N 38°02' E 023°36'.

Length 78 m; draft 5.2 m.

Type: Tanker. MMSI: 240493000.

Date/timePositionNaut miles runAvg speedWind from/ knotsBaromVisibWave heightAir tempDewpointWater temp
2017-Oct-18 16:27N 38°02' E 023°36'0 0.0
2017-Oct-18 15:57N 38°02' E 023°36'0 0.0
2017-Oct-18 15:24N 38°02' E 023°36'0 0.0
2017-Oct-18 15:00N 38°02' E 023°36'0 0.0
2017-Oct-18 13:57N 38°02' E 023°36'0 0.8
2017-Oct-18 13:30N 38°01' E 023°35'3 5.2
2017-Oct-18 12:59N 38°01' E 023°32'0 0.1
2017-Oct-18 12:14N 38°01' E 023°32'0 0.0
2017-Oct-18 11:59N 38°01' E 023°32'0 0.0
2017-Oct-18 11:29N 38°01' E 023°32'0 0.1
2017-Oct-18 11:00N 38°01' E 023°32'0 0.1
2017-Oct-18 10:31N 38°01' E 023°32'0 0.0
2017-Oct-18 10:00N 38°01' E 023°32'0 0.0
2017-Oct-18 09:30N 38°01' E 023°32'1 1.0
2017-Oct-18 09:00N 38°01' E 023°32'4 8.4
2017-Oct-18 08:31N 37°57' E 023°35'3 6.0
2017-Oct-18 08:01N 37°55' E 023°37'5 9.7
2017-Oct-18 07:31N 37°50' E 023°39'510.0
2017-Oct-18 07:01N 37°46' E 023°42'5 9.9
2017-Oct-18 06:31N 37°41' E 023°45'  
2017-Oct-13 01:57N 37°33' E 023°45'510.4
2017-Oct-13 01:30N 37°37' E 023°43'510.3
2017-Oct-13 01:00N 37°42' E 023°40'510.0
2017-Oct-13 00:30N 37°46' E 023°37'510.0
2017-Oct-13 00:00N 37°49' E 023°32'5 9.9
2017-Oct-12 23:30N 37°52' E 023°26'4 8.6
2017-Oct-12 23:00N 37°55' E 023°23'4 7.7
2017-Oct-12 22:30N 37°59' E 023°25'5 9.3
2017-Oct-12 22:00N 38°01' E 023°30'4 8.0
2017-Oct-12 21:31N 38°01' E 023°35'0 0.1
2017-Oct-12 20:00N 38°01' E 023°35'0 0.0
2017-Oct-12 19:30N 38°01' E 023°35'0 0.3
2017-Oct-12 19:00N 38°01' E 023°35'1 0.1
2017-Oct-12 12:13N 38°02' E 023°36'0 0.0
2017-Oct-12 08:14N 38°02' E 023°36'0 0.0
2017-Oct-12 08:00N 38°02' E 023°36'0 0.0
2017-Oct-12 07:30N 38°02' E 023°36'0 0.0
2017-Oct-12 06:56N 38°02' E 023°36'0 1.0
2017-Oct-12 06:30N 38°01' E 023°35'3 5.1
2017-Oct-12 06:00N 38°02' E 023°32'2 3.2
2017-Oct-12 05:30N 38°00' E 023°33'4 8.4
2017-Oct-12 05:00N 37°56' E 023°35'3 2.9
2017-Oct-12 03:52N 37°53' E 023°36'0 1.4
2017-Oct-12 03:30N 37°53' E 023°36'2 4.2
2017-Oct-12 02:59N 37°51' E 023°38'4 8.4
2017-Oct-12 02:30N 37°48' E 023°41'  
2017-Oct-09 03:36N 37°38' E 024°08'14 9.7
2017-Oct-09 02:08N 37°39' E 023°50'1 9.6
2017-Oct-09 02:00N 37°39' E 023°48'5 9.6
2017-Oct-09 01:30N 37°40' E 023°42'510.2
2017-Oct-09 01:00N 37°45' E 023°40'510.1
2017-Oct-09 00:30N 37°49' E 023°37'5 9.7
2017-Oct-09 00:00N 37°50' E 023°31'510.4
2017-Oct-08 23:30N 37°52' E 023°25'4 8.6
2017-Oct-08 23:00N 37°56' E 023°24'4 7.2
2017-Oct-08 22:30N 37°60' E 023°26'5 9.7
2017-Oct-08 22:00N 38°01' E 023°32'3 5.8
2017-Oct-08 21:27N 38°02' E 023°36'  
Track history (hours):
 
Tides and Currents Weather Stations Pressure Air Temp Water Temp Dewpoint Dewpoint Depression Visibility Wind Speed Wind Dir Waves Ship Positions

Eviapetrol II

Last reported at 2017-Oct-18 16:27 UTC. Time now 2017-Oct-18 16:57 UTC.
Position N 38°02' E 023°36'.

Length 78 m; draft 5.2 m.

Type: Tanker. MMSI: 240493000.

Date/timePositionNaut miles runAvg speedWind from/ knotsBaromVisibWave heightAir tempDewpointWater temp
2017-Oct-18 16:27N 38°02' E 023°36'0 0.0
2017-Oct-18 15:57N 38°02' E 023°36'0 0.0
2017-Oct-18 15:24N 38°02' E 023°36'0 0.0
2017-Oct-18 15:00N 38°02' E 023°36'0 0.0
2017-Oct-18 13:57N 38°02' E 023°36'0 0.8
2017-Oct-18 13:30N 38°01' E 023°35'3 5.2
2017-Oct-18 12:59N 38°01' E 023°32'0 0.1
2017-Oct-18 12:14N 38°01' E 023°32'0 0.0
2017-Oct-18 11:59N 38°01' E 023°32'0 0.0
2017-Oct-18 11:29N 38°01' E 023°32'0 0.1
2017-Oct-18 11:00N 38°01' E 023°32'0 0.1
2017-Oct-18 10:31N 38°01' E 023°32'0 0.0
2017-Oct-18 10:00N 38°01' E 023°32'0 0.0
2017-Oct-18 09:30N 38°01' E 023°32'1 1.0
2017-Oct-18 09:00N 38°01' E 023°32'4 8.4
2017-Oct-18 08:31N 37°57' E 023°35'3 6.0
2017-Oct-18 08:01N 37°55' E 023°37'5 9.7
2017-Oct-18 07:31N 37°50' E 023°39'510.0
2017-Oct-18 07:01N 37°46' E 023°42'5 9.9
2017-Oct-18 06:31N 37°41' E 023°45'  
2017-Oct-13 01:57N 37°33' E 023°45'510.4
2017-Oct-13 01:30N 37°37' E 023°43'510.3
2017-Oct-13 01:00N 37°42' E 023°40'510.0
2017-Oct-13 00:30N 37°46' E 023°37'510.0
2017-Oct-13 00:00N 37°49' E 023°32'5 9.9
2017-Oct-12 23:30N 37°52' E 023°26'4 8.6
2017-Oct-12 23:00N 37°55' E 023°23'4 7.7
2017-Oct-12 22:30N 37°59' E 023°25'5 9.3
2017-Oct-12 22:00N 38°01' E 023°30'4 8.0
2017-Oct-12 21:31N 38°01' E 023°35'0 0.1
2017-Oct-12 20:00N 38°01' E 023°35'0 0.0
2017-Oct-12 19:30N 38°01' E 023°35'0 0.3
2017-Oct-12 19:00N 38°01' E 023°35'1 0.1
2017-Oct-12 12:13N 38°02' E 023°36'0 0.0
2017-Oct-12 08:14N 38°02' E 023°36'0 0.0
2017-Oct-12 08:00N 38°02' E 023°36'0 0.0
2017-Oct-12 07:30N 38°02' E 023°36'0 0.0
2017-Oct-12 06:56N 38°02' E 023°36'0 1.0
2017-Oct-12 06:30N 38°01' E 023°35'3 5.1
2017-Oct-12 06:00N 38°02' E 023°32'2 3.2
2017-Oct-12 05:30N 38°00' E 023°33'4 8.4
2017-Oct-12 05:00N 37°56' E 023°35'3 2.9
2017-Oct-12 03:52N 37°53' E 023°36'0 1.4
2017-Oct-12 03:30N 37°53' E 023°36'2 4.2
2017-Oct-12 02:59N 37°51' E 023°38'4 8.4
2017-Oct-12 02:30N 37°48' E 023°41'  
2017-Oct-09 03:36N 37°38' E 024°08'14 9.7
2017-Oct-09 02:08N 37°39' E 023°50'1 9.6
2017-Oct-09 02:00N 37°39' E 023°48'5 9.6
2017-Oct-09 01:30N 37°40' E 023°42'510.2
2017-Oct-09 01:00N 37°45' E 023°40'510.1
2017-Oct-09 00:30N 37°49' E 023°37'5 9.7
2017-Oct-09 00:00N 37°50' E 023°31'510.4
2017-Oct-08 23:30N 37°52' E 023°25'4 8.6
2017-Oct-08 23:00N 37°56' E 023°24'4 7.2
2017-Oct-08 22:30N 37°60' E 023°26'5 9.7
2017-Oct-08 22:00N 38°01' E 023°32'3 5.8
2017-Oct-08 21:27N 38°02' E 023°36'  

Dump ship's entire track history